DAL1685 KBOS-KATL
Flight info
| Callsign | DAL1685 |
|---|---|
| Flight time | N/A |
| Altitude | 36000 |
| Route | BLZZR6 BLZZR BAF Q448 PTW/N0464F380 J48 MOL FLASK OZZZI2 |
| Aircraft | B738/M-SDE2E3FGHIRWXY/LB1 |
Departure
| Time | 2026-05-06 23:48 |
|---|---|
| Airport | Boston Logan International Airport (KBOS) |
Arrival
| Time | N/A |
|---|---|
| Airport | Hartsfield Jackson Atlanta International Airport (KATL) |
| Time | Latitude | Longitude | Altitude | Speed | Heading |
|---|---|---|---|---|---|
| 2026-05-06 23:16 | 42.36227 | -71.02440 | 25 ft | 0 kts | 273° |
| 2026-05-06 23:34 | 42.36227 | -71.02433 | 24 ft | 4 kts | 272° |
| 2026-05-06 23:34 | 42.36226 | -71.02403 | 25 ft | 2 kts | 271° |
| 2026-05-06 23:35 | 42.36227 | -71.02364 | 26 ft | 10 kts | 245° |
| 2026-05-06 23:35 | 42.36274 | -71.02336 | 26 ft | 4 kts | 176° |
| 2026-05-06 23:35 | 42.36282 | -71.02336 | 25 ft | 0 kts | 184° |
| 2026-05-06 23:36 | 42.36273 | -71.02337 | 26 ft | 4 kts | 186° |
| 2026-05-06 23:36 | 42.36229 | -71.02345 | 27 ft | 10 kts | 186° |
| 2026-05-06 23:37 | 42.36154 | -71.02352 | 27 ft | 12 kts | 180° |
| 2026-05-06 23:37 | 42.36067 | -71.02306 | 23 ft | 15 kts | 146° |
| 2026-05-06 23:37 | 42.35999 | -71.02182 | 26 ft | 18 kts | 122° |
| 2026-05-06 23:37 | 42.35955 | -71.02081 | 24 ft | 5 kts | 119° |
| 2026-05-06 23:38 | 42.35955 | -71.02080 | 24 ft | 0 kts | 119° |
| 2026-05-06 23:41 | 42.35947 | -71.02059 | 29 ft | 5 kts | 119° |
| 2026-05-06 23:41 | 42.35919 | -71.01993 | 24 ft | 11 kts | 119° |
| 2026-05-06 23:41 | 42.35874 | -71.01893 | 26 ft | 14 kts | 120° |
| 2026-05-06 23:41 | 42.35842 | -71.01756 | 30 ft | 17 kts | 102° |
| 2026-05-06 23:42 | 42.35828 | -71.01605 | 26 ft | 15 kts | 70° |
| 2026-05-06 23:42 | 42.35930 | -71.01529 | 28 ft | 20 kts | 19° |
| 2026-05-06 23:42 | 42.36080 | -71.01456 | 27 ft | 25 kts | 20° |
| 2026-05-06 23:42 | 42.36266 | -71.01365 | 22 ft | 31 kts | 19° |
| 2026-05-06 23:43 | 42.36485 | -71.01260 | 22 ft | 36 kts | 19° |
| 2026-05-06 23:43 | 42.36707 | -71.01152 | 25 ft | 24 kts | 18° |
| 2026-05-06 23:43 | 42.36849 | -71.01213 | 22 ft | 21 kts | 332° |
| 2026-05-06 23:43 | 42.36975 | -71.01122 | 23 ft | 24 kts | 37° |
| 2026-05-06 23:44 | 42.37142 | -71.01008 | 21 ft | 30 kts | 26° |
| 2026-05-06 23:44 | 42.37259 | -71.00932 | 20 ft | 1 kts | 26° |
| 2026-05-06 23:44 | 42.37289 | -71.00914 | 19 ft | 9 kts | 21° |
| 2026-05-06 23:44 | 42.37374 | -71.00870 | 19 ft | 17 kts | 20° |
| 2026-05-06 23:45 | 42.37507 | -71.00807 | 22 ft | 23 kts | 19° |
| 2026-05-06 23:45 | 42.37680 | -71.00722 | 27 ft | 29 kts | 20° |
| 2026-05-06 23:45 | 42.37825 | -71.00640 | 27 ft | 20 kts | 41° |
| 2026-05-06 23:45 | 42.37839 | -71.00578 | 27 ft | 0 kts | 107° |
| 2026-05-06 23:46 | 42.37838 | -71.00576 | 26 ft | 2 kts | 107° |
| 2026-05-06 23:46 | 42.37822 | -71.00518 | 26 ft | 11 kts | 118° |
| 2026-05-06 23:47 | 42.37771 | -71.00488 | 23 ft | 7 kts | 191° |
| 2026-05-06 23:47 | 42.37708 | -71.00515 | 27 ft | 34 kts | 199° |
| 2026-05-06 23:47 | 42.37231 | -71.00744 | 17 ft | 110 kts | 200° |
| 2026-05-06 23:47 | 42.36335 | -71.01182 | 180 ft | 154 kts | 199° |
| 2026-05-06 23:48 | 42.35231 | -71.01720 | 651 ft | 184 kts | 200° |
| 2026-05-06 23:48 | 42.33878 | -71.01913 | 1181 ft | 206 kts | 163° |
| 2026-05-06 23:48 | 42.32760 | -71.00689 | 2215 ft | 223 kts | 133° |
| 2026-05-06 23:48 | 42.31867 | -70.98802 | 2607 ft | 249 kts | 129° |
| 2026-05-06 23:49 | 42.31129 | -70.96635 | 3175 ft | 266 kts | 105° |
| 2026-05-06 23:49 | 42.31193 | -70.94059 | 3064 ft | 279 kts | 77° |
| 2026-05-06 23:49 | 42.31651 | -70.91555 | 3001 ft | 269 kts | 78° |
| 2026-05-06 23:49 | 42.32050 | -70.89147 | 2948 ft | 256 kts | 79° |
| 2026-05-06 23:50 | 42.32398 | -70.86849 | 2930 ft | 244 kts | 79° |
| 2026-05-06 23:50 | 42.33054 | -70.82262 | 3073 ft | 273 kts | 82° |
| 2026-05-06 23:50 | 42.33052 | -70.79655 | 3390 ft | 282 kts | 111° |
| 2026-05-06 23:51 | 42.32249 | -70.77254 | 3945 ft | 283 kts | 124° |
| 2026-05-06 23:51 | 42.31289 | -70.74910 | 4610 ft | 287 kts | 125° |
| 2026-05-06 23:51 | 42.30052 | -70.72860 | 5310 ft | 278 kts | 150° |
| 2026-05-06 23:51 | 42.28934 | -70.72026 | 5787 ft | 268 kts | 167° |
| 2026-05-06 23:52 | 42.27135 | -70.71605 | 6455 ft | 260 kts | 189° |
| 2026-05-06 23:52 | 42.25384 | -70.71917 | 7137 ft | 257 kts | 195° |
| 2026-05-06 23:52 | 42.23610 | -70.72340 | 7804 ft | 260 kts | 197° |
| 2026-05-06 23:52 | 42.21827 | -70.72769 | 8510 ft | 261 kts | 198° |
| 2026-05-06 23:53 | 42.20177 | -70.73647 | 9180 ft | 252 kts | 221° |
| 2026-05-06 23:53 | 42.18979 | -70.75290 | 9935 ft | 245 kts | 237° |
| 2026-05-06 23:53 | 42.18224 | -70.77376 | 10353 ft | 256 kts | 253° |
| 2026-05-06 23:53 | 42.17825 | -70.79813 | 10514 ft | 277 kts | 258° |
| 2026-05-06 23:54 | 42.17495 | -70.82471 | 10654 ft | 298 kts | 258° |
| 2026-05-06 23:54 | 42.17140 | -70.85324 | 10795 ft | 317 kts | 258° |
| 2026-05-06 23:54 | 42.16746 | -70.88330 | 10922 ft | 334 kts | 258° |
| 2026-05-06 23:54 | 42.16321 | -70.91493 | 11113 ft | 349 kts | 258° |
| 2026-05-06 23:55 | 42.16077 | -70.94737 | 11521 ft | 356 kts | 265° |
| 2026-05-06 23:55 | 42.16210 | -70.98134 | 12086 ft | 360 kts | 272° |
| 2026-05-06 23:55 | 42.16466 | -71.01466 | 12632 ft | 362 kts | 272° |
| 2026-05-06 23:55 | 42.16727 | -71.04857 | 13161 ft | 365 kts | 272° |
| 2026-05-06 23:56 | 42.16986 | -71.08285 | 13638 ft | 369 kts | 271° |
| 2026-05-06 23:56 | 42.17242 | -71.11732 | 14117 ft | 370 kts | 271° |
| 2026-05-06 23:56 | 42.17495 | -71.15190 | 14609 ft | 372 kts | 271° |
| 2026-05-06 23:56 | 42.17747 | -71.18676 | 15078 ft | 374 kts | 271° |
| 2026-05-06 23:57 | 42.17998 | -71.22181 | 15536 ft | 376 kts | 271° |
| 2026-05-06 23:57 | 42.18248 | -71.25705 | 15979 ft | 379 kts | 271° |
| 2026-05-06 23:57 | 42.18499 | -71.29251 | 16425 ft | 381 kts | 271° |
| 2026-05-06 23:57 | 42.18750 | -71.32820 | 16857 ft | 383 kts | 271° |
| 2026-05-06 23:58 | 42.19001 | -71.36413 | 17274 ft | 386 kts | 270° |
| 2026-05-06 23:58 | 42.19250 | -71.39984 | 17670 ft | 388 kts | 270° |
| 2026-05-06 23:58 | 42.19502 | -71.43615 | 18060 ft | 390 kts | 270° |
| 2026-05-06 23:58 | 42.19754 | -71.47260 | 18403 ft | 392 kts | 270° |
| 2026-05-06 23:59 | 42.20007 | -71.50942 | 18765 ft | 394 kts | 271° |
| 2026-05-06 23:59 | 42.20259 | -71.54620 | 19123 ft | 395 kts | 271° |
| 2026-05-06 23:59 | 42.20511 | -71.58314 | 19485 ft | 396 kts | 271° |
| 2026-05-06 23:59 | 42.20763 | -71.62018 | 19839 ft | 398 kts | 271° |
| 2026-05-07 00:00 | 42.21014 | -71.65740 | 20187 ft | 399 kts | 271° |
| 2026-05-07 00:00 | 42.21265 | -71.69471 | 20557 ft | 400 kts | 271° |
| 2026-05-07 00:00 | 42.21515 | -71.73217 | 20903 ft | 401 kts | 271° |
| 2026-05-07 00:00 | 42.21675 | -71.76978 | 21250 ft | 400 kts | 266° |
| 2026-05-07 00:01 | 42.21496 | -71.80710 | 21607 ft | 400 kts | 263° |
| 2026-05-07 00:01 | 42.21272 | -71.84460 | 21957 ft | 401 kts | 264° |
| 2026-05-07 00:01 | 42.21053 | -71.88221 | 22293 ft | 402 kts | 264° |
| 2026-05-07 00:01 | 42.20842 | -71.91938 | 22614 ft | 402 kts | 264° |
| 2026-05-07 00:02 | 42.20631 | -71.95706 | 22949 ft | 403 kts | 264° |
| 2026-05-07 00:02 | 42.20420 | -71.99485 | 23250 ft | 404 kts | 264° |
| 2026-05-07 00:02 | 42.20209 | -72.03273 | 23491 ft | 406 kts | 264° |
| 2026-05-07 00:02 | 42.19997 | -72.07078 | 23759 ft | 407 kts | 264° |
| 2026-05-07 00:03 | 42.19782 | -72.10896 | 24042 ft | 406 kts | 264° |
| 2026-05-07 00:03 | 42.19567 | -72.14701 | 24317 ft | 406 kts | 264° |
| 2026-05-07 00:03 | 42.19351 | -72.18499 | 24573 ft | 407 kts | 264° |
| 2026-05-07 00:03 | 42.19136 | -72.22256 | 24807 ft | 407 kts | 264° |
| 2026-05-07 00:04 | 42.18917 | -72.26064 | 25065 ft | 407 kts | 264° |
| 2026-05-07 00:04 | 42.18697 | -72.29865 | 25310 ft | 407 kts | 264° |
| 2026-05-07 00:04 | 42.18475 | -72.33675 | 25526 ft | 408 kts | 264° |
| 2026-05-07 00:04 | 42.18252 | -72.37483 | 25712 ft | 408 kts | 264° |
| 2026-05-07 00:05 | 42.18028 | -72.41303 | 25824 ft | 409 kts | 264° |
| 2026-05-07 00:05 | 42.17801 | -72.45131 | 26037 ft | 405 kts | 264° |
| 2026-05-07 00:05 | 42.17578 | -72.48897 | 26444 ft | 400 kts | 264° |
| 2026-05-07 00:05 | 42.17356 | -72.52600 | 26899 ft | 394 kts | 264° |
| 2026-05-07 00:06 | 42.17137 | -72.56260 | 27331 ft | 390 kts | 264° |
| 2026-05-07 00:06 | 42.16918 | -72.59884 | 27771 ft | 386 kts | 264° |
| 2026-05-07 00:06 | 42.16699 | -72.63469 | 28253 ft | 381 kts | 264° |
| 2026-05-07 00:06 | 42.16302 | -72.66977 | 28693 ft | 377 kts | 256° |
| 2026-05-07 00:07 | 42.15491 | -72.70317 | 29163 ft | 374 kts | 251° |
| 2026-05-07 00:07 | 42.14486 | -72.73535 | 29632 ft | 371 kts | 248° |
| 2026-05-07 00:07 | 42.13262 | -72.76593 | 30053 ft | 371 kts | 242° |
| 2026-05-07 00:07 | 42.11713 | -72.79406 | 30229 ft | 375 kts | 238° |
| 2026-05-07 00:08 | 42.08453 | -72.84931 | 30392 ft | 382 kts | 238° |
| 2026-05-07 00:08 | 42.06797 | -72.87730 | 30625 ft | 380 kts | 238° |
| 2026-05-07 00:08 | 42.05160 | -72.90507 | 30887 ft | 379 kts | 238° |
| 2026-05-07 00:09 | 42.03525 | -72.93292 | 31089 ft | 379 kts | 238° |
| 2026-05-07 00:09 | 42.01893 | -72.96078 | 31341 ft | 377 kts | 239° |
| 2026-05-07 00:09 | 42.00270 | -72.98847 | 31537 ft | 377 kts | 239° |
| 2026-05-07 00:09 | 41.98641 | -73.01624 | 31737 ft | 377 kts | 239° |
| 2026-05-07 00:10 | 41.96975 | -73.04349 | 31966 ft | 380 kts | 235° |
| 2026-05-07 00:10 | 41.95088 | -73.06819 | 32154 ft | 385 kts | 230° |
| 2026-05-07 00:10 | 41.92970 | -73.09068 | 32336 ft | 393 kts | 224° |
| 2026-05-07 00:10 | 41.90646 | -73.11039 | 32537 ft | 396 kts | 223° |
| 2026-05-07 00:11 | 41.88304 | -73.12985 | 32727 ft | 396 kts | 223° |
| 2026-05-07 00:11 | 41.85965 | -73.14929 | 32886 ft | 396 kts | 223° |
| 2026-05-07 00:11 | 41.83625 | -73.16881 | 33042 ft | 396 kts | 223° |
| 2026-05-07 00:11 | 41.81286 | -73.18836 | 33227 ft | 395 kts | 223° |
| 2026-05-07 00:12 | 41.78963 | -73.20782 | 33414 ft | 394 kts | 223° |
| 2026-05-07 00:12 | 41.76637 | -73.22732 | 33602 ft | 394 kts | 224° |
| 2026-05-07 00:12 | 41.74323 | -73.24672 | 33757 ft | 393 kts | 224° |
| 2026-05-07 00:12 | 41.71998 | -73.26619 | 33792 ft | 392 kts | 224° |
| 2026-05-07 00:13 | 41.67395 | -73.30530 | 33870 ft | 388 kts | 227° |
| 2026-05-07 00:13 | 41.65341 | -73.32736 | 34276 ft | 371 kts | 232° |
| 2026-05-07 00:13 | 41.63569 | -73.35150 | 34618 ft | 356 kts | 239° |
| 2026-05-07 00:14 | 41.61977 | -73.37627 | 34989 ft | 349 kts | 239° |
| 2026-05-07 00:14 | 41.60404 | -73.40064 | 35361 ft | 342 kts | 239° |
| 2026-05-07 00:14 | 41.58855 | -73.42459 | 35464 ft | 342 kts | 239° |
| 2026-05-07 00:14 | 41.57289 | -73.44885 | 35425 ft | 345 kts | 239° |
| 2026-05-07 00:15 | 41.54142 | -73.49738 | 35414 ft | 350 kts | 239° |
| 2026-05-07 00:15 | 41.50938 | -73.54658 | 35416 ft | 354 kts | 239° |
| 2026-05-07 00:16 | 41.47683 | -73.59644 | 35398 ft | 359 kts | 238° |
| 2026-05-07 00:16 | 41.44383 | -73.64689 | 35410 ft | 363 kts | 238° |
| 2026-05-07 00:17 | 41.41046 | -73.69781 | 35407 ft | 366 kts | 238° |
| 2026-05-07 00:17 | 41.37688 | -73.74897 | 35392 ft | 367 kts | 238° |
| 2026-05-07 00:18 | 41.34340 | -73.79983 | 35385 ft | 362 kts | 238° |
| 2026-05-07 00:18 | 41.31019 | -73.84909 | 35385 ft | 359 kts | 238° |
| 2026-05-07 00:19 | 41.27667 | -73.89829 | 35386 ft | 357 kts | 238° |
| 2026-05-07 00:19 | 41.24339 | -73.94720 | 35391 ft | 356 kts | 238° |
| 2026-05-07 00:20 | 41.21017 | -73.99602 | 35391 ft | 356 kts | 238° |
| 2026-05-07 00:20 | 41.17687 | -74.04492 | 35407 ft | 357 kts | 238° |
| 2026-05-07 00:21 | 41.14336 | -74.09400 | 35405 ft | 360 kts | 238° |
| 2026-05-07 00:21 | 41.11109 | -74.14461 | 35409 ft | 359 kts | 240° |
| 2026-05-07 00:22 | 41.07990 | -74.19593 | 35409 ft | 361 kts | 240° |
| 2026-05-07 00:22 | 41.04809 | -74.24794 | 35414 ft | 361 kts | 240° |
| 2026-05-07 00:23 | 41.01630 | -74.29954 | 35426 ft | 363 kts | 240° |
| 2026-05-07 00:23 | 40.98443 | -74.35103 | 35429 ft | 364 kts | 240° |
| 2026-05-07 00:24 | 40.95227 | -74.40285 | 35417 ft | 364 kts | 240° |
| 2026-05-07 00:24 | 40.92011 | -74.45457 | 35407 ft | 364 kts | 240° |
| 2026-05-07 00:25 | 40.88803 | -74.50604 | 35409 ft | 362 kts | 240° |
| 2026-05-07 00:25 | 40.85602 | -74.55736 | 35412 ft | 361 kts | 240° |
| 2026-05-07 00:26 | 40.82418 | -74.60830 | 35416 ft | 359 kts | 240° |
| 2026-05-07 00:26 | 40.79246 | -74.65898 | 35400 ft | 357 kts | 240° |
| 2026-05-07 00:27 | 40.76087 | -74.70935 | 35711 ft | 352 kts | 241° |
| 2026-05-07 00:27 | 40.72963 | -74.75913 | 35829 ft | 353 kts | 241° |
| 2026-05-07 00:28 | 40.69827 | -74.80907 | 35826 ft | 357 kts | 241° |
| 2026-05-07 00:28 | 40.66652 | -74.85947 | 35820 ft | 358 kts | 241° |
| 2026-05-07 00:29 | 40.63467 | -74.90994 | 35821 ft | 358 kts | 241° |
| 2026-05-07 00:30 | 40.57125 | -75.01019 | 35839 ft | 356 kts | 241° |
| 2026-05-07 00:30 | 40.53962 | -75.06017 | 35839 ft | 354 kts | 241° |
| 2026-05-07 00:31 | 40.50823 | -75.10988 | 35846 ft | 352 kts | 241° |
| 2026-05-07 00:31 | 40.47701 | -75.15931 | 35846 ft | 350 kts | 241° |
| 2026-05-07 00:32 | 40.44617 | -75.20803 | 35856 ft | 348 kts | 241° |
| 2026-05-07 00:32 | 40.41513 | -75.25699 | 35859 ft | 346 kts | 241° |
| 2026-05-07 00:33 | 40.38456 | -75.30515 | 35859 ft | 345 kts | 241° |
| 2026-05-07 00:33 | 40.35382 | -75.35350 | 35856 ft | 345 kts | 241° |
| 2026-05-07 00:34 | 40.32293 | -75.40200 | 35856 ft | 344 kts | 241° |
| 2026-05-07 00:34 | 40.29246 | -75.44978 | 35869 ft | 344 kts | 241° |
| 2026-05-07 00:35 | 40.26168 | -75.49798 | 35869 ft | 344 kts | 241° |
| 2026-05-07 00:35 | 40.23608 | -75.53799 | 35867 ft | 345 kts | 241° |
| 2026-05-07 00:36 | 40.20774 | -75.58772 | 35871 ft | 338 kts | 246° |
| 2026-05-07 00:36 | 40.18212 | -75.63926 | 35870 ft | 338 kts | 246° |
| 2026-05-07 00:37 | 40.15636 | -75.69090 | 35861 ft | 339 kts | 246° |
| 2026-05-07 00:37 | 40.13050 | -75.74246 | 35868 ft | 339 kts | 246° |
| 2026-05-07 00:38 | 40.10456 | -75.79404 | 35863 ft | 340 kts | 246° |
| 2026-05-07 00:38 | 40.07850 | -75.84559 | 35865 ft | 340 kts | 246° |
| 2026-05-07 00:39 | 40.05239 | -75.89690 | 35870 ft | 340 kts | 246° |
| 2026-05-07 00:39 | 40.02641 | -75.94786 | 35865 ft | 339 kts | 246° |
| 2026-05-07 00:40 | 40.00026 | -75.99914 | 35867 ft | 339 kts | 246° |
| 2026-05-07 00:40 | 39.97413 | -76.05030 | 35862 ft | 339 kts | 246° |
| 2026-05-07 00:41 | 39.94807 | -76.10148 | 35881 ft | 338 kts | 246° |
| 2026-05-07 00:41 | 39.92222 | -76.15281 | 35879 ft | 338 kts | 246° |
| 2026-05-07 00:42 | 39.89633 | -76.20395 | 35872 ft | 338 kts | 246° |
| 2026-05-07 00:42 | 39.87022 | -76.25488 | 35877 ft | 337 kts | 246° |
| 2026-05-07 00:43 | 39.84430 | -76.30535 | 35876 ft | 337 kts | 246° |
| 2026-05-07 00:43 | 39.81823 | -76.35610 | 35886 ft | 338 kts | 245° |
| 2026-05-07 00:44 | 39.79211 | -76.40688 | 35875 ft | 338 kts | 245° |
| 2026-05-07 00:44 | 39.76590 | -76.45775 | 35872 ft | 338 kts | 245° |
| 2026-05-07 00:45 | 39.73971 | -76.50851 | 35873 ft | 338 kts | 245° |
| 2026-05-07 00:45 | 39.71344 | -76.55935 | 35874 ft | 339 kts | 245° |
| 2026-05-07 00:46 | 39.68730 | -76.60984 | 35871 ft | 339 kts | 245° |
| 2026-05-07 00:46 | 39.66101 | -76.66056 | 35893 ft | 339 kts | 245° |
| 2026-05-07 00:47 | 39.63471 | -76.71120 | 35901 ft | 338 kts | 245° |
| 2026-05-07 00:47 | 39.60832 | -76.76195 | 35901 ft | 339 kts | 245° |
| 2026-05-07 00:48 | 39.58194 | -76.81260 | 35911 ft | 339 kts | 245° |
| 2026-05-07 00:48 | 39.55546 | -76.86337 | 35913 ft | 340 kts | 245° |
| 2026-05-07 00:49 | 39.52899 | -76.91406 | 35910 ft | 340 kts | 245° |
| 2026-05-07 00:49 | 39.50191 | -76.96406 | 35908 ft | 346 kts | 240° |
| 2026-05-07 00:50 | 39.46731 | -77.00882 | 35921 ft | 360 kts | 232° |
| 2026-05-07 00:50 | 39.42819 | -77.04993 | 35915 ft | 362 kts | 231° |
| 2026-05-07 00:51 | 39.38895 | -77.09087 | 35909 ft | 363 kts | 231° |
| 2026-05-07 00:51 | 39.34965 | -77.13197 | 35908 ft | 364 kts | 231° |
| 2026-05-07 00:52 | 39.31030 | -77.17319 | 35900 ft | 365 kts | 231° |
| 2026-05-07 00:52 | 39.27083 | -77.21451 | 35897 ft | 366 kts | 231° |
| 2026-05-07 00:53 | 39.23148 | -77.25566 | 35899 ft | 367 kts | 231° |
| 2026-05-07 00:53 | 39.19179 | -77.29710 | 35897 ft | 367 kts | 231° |
| 2026-05-07 00:54 | 39.15197 | -77.33863 | 35895 ft | 368 kts | 231° |
| 2026-05-07 00:54 | 39.11215 | -77.38007 | 35915 ft | 368 kts | 231° |
| 2026-05-07 00:55 | 39.07227 | -77.42153 | 35908 ft | 369 kts | 231° |
| 2026-05-07 00:55 | 39.03232 | -77.46298 | 35909 ft | 369 kts | 231° |
| 2026-05-07 00:56 | 38.99432 | -77.50237 | 35901 ft | 369 kts | 231° |
| 2026-05-07 00:56 | 38.95875 | -77.53918 | 35907 ft | 368 kts | 231° |
| 2026-05-07 00:57 | 38.91881 | -77.58047 | 35906 ft | 369 kts | 231° |
| 2026-05-07 00:57 | 38.87907 | -77.62148 | 35896 ft | 368 kts | 231° |
| 2026-05-07 00:58 | 38.83909 | -77.66271 | 35894 ft | 370 kts | 231° |
| 2026-05-07 00:58 | 38.79909 | -77.70390 | 35898 ft | 372 kts | 231° |
| 2026-05-07 00:59 | 38.73839 | -77.76624 | 35882 ft | 374 kts | 231° |
| 2026-05-07 00:59 | 38.71955 | -77.78772 | 35959 ft | 361 kts | 232° |
| 2026-05-07 01:00 | 38.69958 | -77.80805 | 35938 ft | 369 kts | 229° |
| 2026-05-07 01:00 | 38.65856 | -77.84827 | 35904 ft | 372 kts | 231° |
| 2026-05-07 01:01 | 38.62353 | -77.89491 | 35901 ft | 357 kts | 243° |